Airport ID:1G3
Update Time (UTC):07/12/2021 21:56
Wind Speed (Knots):5
Wind Direction (Magnetic):250
Temperature (°C):-4
Dew Point (°C):-10
Humidity (%):60
Altimeter (inHg):30.18
Density Altitude (Feet):
Visibility:10+
Clouds (Hundreds of feet):***
Present Weather:
METAR:METAR 1G3 072155Z AUTO 24007KT 10SM M04/M10 A3018 RMK A01

The data displayed is for advisory purposes only and is not to be used for flight planning or operations.